Capitol Logistics 976

Operating for DHL



LFPG
Charles de Gaulle
Paris, FR
LFBD
Bordeaux-Mérignac Airport
Bordeaux, FR

Activity Log

Date Flight Route Aircraft Duration
02/16/2022 CPX976 AGOP5D AGOPA ARKIP ARMAL ARTAX BEBIX LMG LMG9L A30F 1h 12m

Route Details

Aircraft Information
Group: European Fleet
Types: A30F,A31F,B738
Route Data
Demand: M
Distance: 285nm
Duration: 1h 25m
Recm'd Route: AGOP5D AGOPA ARKIP ARMAL ARTAX BEBIX LMG LMG9L
Origin Wx: LFPG 242000Z 25005KT CAVOK 15/08 Q1013 NOSIG
Dest. Wx: LFBD 242030Z AUTO 27003KT CAVOK 14/09 Q1017 NOSIG
Notes:

Financial History
Total Freight: 67,846lbs
Average Load: 67,846lbs/flt
Fuel Used: 13,695lbs
Avg. Fuel Used: 13,695lbs/flt
Fuel Expense: $5,067
Avg. Fuel Expense: $5,067
Avg. Fuel Cost: $0.37/lbs
Total Gross Income: $138,474
Pilot Pay: $259
Total Expenses: $17,430
Total Revenue: $115,683
Average Revenue: $138,473.69